sensor_id;sensor_type;location;lat;lon;timestamp;pressure;altitude;pressure_sealevel;temperature;humidity
46778;BME280;32536;47.128;8.746;2023-03-11T00:00:42;90554.34;;;5.32;57.47
46778;BME280;32536;47.128;8.746;2023-03-11T00:03:12;90549.75;;;5.36;57.38
46778;BME280;32536;47.128;8.746;2023-03-11T00:05:41;90558.13;;;5.35;57.88
46778;BME280;32536;47.128;8.746;2023-03-11T00:08:12;90575.56;;;5.32;57.59
46778;BME280;32536;47.128;8.746;2023-03-11T00:10:41;90588.44;;;5.37;57.91
46778;BME280;32536;47.128;8.746;2023-03-11T00:13:11;90580.03;;;5.42;56.97
46778;BME280;32536;47.128;8.746;2023-03-11T00:15:40;90572.00;;;5.46;57.40
46778;BME280;32536;47.128;8.746;2023-03-11T00:18:08;90570.81;;;5.51;57.70
46778;BME280;32536;47.128;8.746;2023-03-11T00:20:37;90561.34;;;5.50;57.06
46778;BME280;32536;47.128;8.746;2023-03-11T00:23:06;90564.38;;;5.52;57.15
46778;BME280;32536;47.128;8.746;2023-03-11T00:25:35;90589.75;;;5.53;57.28
46778;BME280;32536;47.128;8.746;2023-03-11T00:28:03;90595.88;;;5.50;57.46
46778;BME280;32536;47.128;8.746;2023-03-11T00:30:37;90595.13;;;5.49;57.34
46778;BME280;32536;47.128;8.746;2023-03-11T00:33:05;90585.25;;;5.50;57.32
46778;BME280;32536;47.128;8.746;2023-03-11T00:35:34;90565.09;;;5.52;57.43
46778;BME280;32536;47.128;8.746;2023-03-11T00:38:04;90570.03;;;5.54;56.92
46778;BME280;32536;47.128;8.746;2023-03-11T00:40:33;90584.41;;;5.56;57.27
46778;BME280;32536;47.128;8.746;2023-03-11T00:43:01;90595.75;;;5.60;57.21
46778;BME280;32536;47.128;8.746;2023-03-11T00:45:29;90586.19;;;5.67;57.10
46778;BME280;32536;47.128;8.746;2023-03-11T00:47:57;90581.16;;;5.72;57.20
46778;BME280;32536;47.128;8.746;2023-03-11T00:50:29;90581.53;;;5.74;57.48
46778;BME280;32536;47.128;8.746;2023-03-11T00:52:58;90590.31;;;5.71;57.20
46778;BME280;32536;47.128;8.746;2023-03-11T00:55:27;90589.25;;;5.65;56.88
46778;BME280;32536;47.128;8.746;2023-03-11T00:57:58;90573.41;;;5.58;57.53
46778;BME280;32536;47.128;8.746;2023-03-11T01:00:28;90564.69;;;5.54;56.95
46778;BME280;32536;47.128;8.746;2023-03-11T01:02:55;90571.16;;;5.53;57.28
46778;BME280;32536;47.128;8.746;2023-03-11T01:05:25;90586.38;;;5.52;57.23
46778;BME280;32536;47.128;8.746;2023-03-11T01:07:54;90572.06;;;5.42;57.16
46778;BME280;32536;47.128;8.746;2023-03-11T01:10:20;90577.44;;;5.35;57.08
46778;BME280;32536;47.128;8.746;2023-03-11T01:12:47;90591.56;;;5.28;56.90
46778;BME280;32536;47.128;8.746;2023-03-11T01:15:24;90580.22;;;5.24;57.47
46778;BME280;32536;47.128;8.746;2023-03-11T01:17:55;90577.25;;;5.19;57.49
46778;BME280;32536;47.128;8.746;2023-03-11T01:20:22;90565.19;;;5.14;57.08
46778;BME280;32536;47.128;8.746;2023-03-11T01:22:50;90563.31;;;5.11;57.08
46778;BME280;32536;47.128;8.746;2023-03-11T01:25:19;90556.91;;;5.05;57.63
46778;BME280;32536;47.128;8.746;2023-03-11T01:27:47;90557.31;;;5.03;56.97
46778;BME280;32536;47.128;8.746;2023-03-11T01:32:47;90550.53;;;4.99;57.29
46778;BME280;32536;47.128;8.746;2023-03-11T01:35:16;90559.66;;;4.97;57.01
46778;BME280;32536;47.128;8.746;2023-03-11T01:37:44;90559.25;;;4.99;57.18
46778;BME280;32536;47.128;8.746;2023-03-11T01:42:58;90563.47;;;4.93;57.42
46778;BME280;32536;47.128;8.746;2023-03-11T01:45:36;90562.78;;;4.89;57.98
46778;BME280;32536;47.128;8.746;2023-03-11T01:48:27;90562.34;;;4.94;57.33
46778;BME280;32536;47.128;8.746;2023-03-11T01:50:55;90542.22;;;4.96;56.82
46778;BME280;32536;47.128;8.746;2023-03-11T01:53:23;90547.84;;;5.02;57.03
46778;BME280;32536;47.128;8.746;2023-03-11T01:55:50;90566.81;;;5.04;57.22
46778;BME280;32536;47.128;8.746;2023-03-11T01:58:22;90574.75;;;5.04;57.88
46778;BME280;32536;47.128;8.746;2023-03-11T02:00:52;90562.59;;;5.07;57.37
46778;BME280;32536;47.128;8.746;2023-03-11T02:03:29;90527.72;;;5.05;57.89
46778;BME280;32536;47.128;8.746;2023-03-11T02:06:00;90525.50;;;5.00;57.39
46778;BME280;32536;47.128;8.746;2023-03-11T02:08:29;90532.72;;;4.99;56.74
46778;BME280;32536;47.128;8.746;2023-03-11T02:10:59;90527.06;;;4.97;57.10
46778;BME280;32536;47.128;8.746;2023-03-11T02:13:29;90533.09;;;4.97;57.29
46778;BME280;32536;47.128;8.746;2023-03-11T02:16:00;90535.34;;;4.99;57.60
46778;BME280;32536;47.128;8.746;2023-03-11T02:18:28;90528.53;;;5.02;57.72
46778;BME280;32536;47.128;8.746;2023-03-11T02:21:06;90520.56;;;5.02;57.51
46778;BME280;32536;47.128;8.746;2023-03-11T02:27:00;90515.59;;;5.04;58.10
46778;BME280;32536;47.128;8.746;2023-03-11T02:29:33;90511.78;;;5.05;57.60
46778;BME280;32536;47.128;8.746;2023-03-11T02:32:03;90498.53;;;5.05;57.57
46778;BME280;32536;47.128;8.746;2023-03-11T02:34:35;90495.84;;;5.08;57.75
46778;BME280;32536;47.128;8.746;2023-03-11T02:37:08;90506.03;;;5.10;57.71
46778;BME280;32536;47.128;8.746;2023-03-11T02:39:39;90515.88;;;5.13;57.71
46778;BME280;32536;47.128;8.746;2023-03-11T02:42:18;90525.31;;;5.18;58.07
46778;BME280;32536;47.128;8.746;2023-03-11T02:45:05;90540.03;;;5.22;58.61
46778;BME280;32536;47.128;8.746;2023-03-11T02:47:38;90542.66;;;5.26;57.42
46778;BME280;32536;47.128;8.746;2023-03-11T02:50:08;90542.66;;;5.26;57.61
46778;BME280;32536;47.128;8.746;2023-03-11T02:52:37;90531.97;;;5.29;57.78
46778;BME280;32536;47.128;8.746;2023-03-11T02:55:04;90528.19;;;5.31;57.25
46778;BME280;32536;47.128;8.746;2023-03-11T02:57:31;90536.91;;;5.31;57.76
46778;BME280;32536;47.128;8.746;2023-03-11T02:59:58;90544.47;;;5.33;57.96
46778;BME280;32536;47.128;8.746;2023-03-11T03:02:31;90551.25;;;5.37;57.75
46778;BME280;32536;47.128;8.746;2023-03-11T03:04:57;90549.34;;;5.38;57.53
46778;BME280;32536;47.128;8.746;2023-03-11T03:07:24;90545.53;;;5.39;57.49
46778;BME280;32536;47.128;8.746;2023-03-11T03:09:51;90533.00;;;5.39;57.19
46778;BME280;32536;47.128;8.746;2023-03-11T03:12:17;90527.34;;;5.37;57.29
46778;BME280;32536;47.128;8.746;2023-03-11T03:14:44;90532.34;;;5.32;57.04
46778;BME280;32536;47.128;8.746;2023-03-11T03:17:11;90523.63;;;5.31;57.19
46778;BME280;32536;47.128;8.746;2023-03-11T03:19:38;90526.28;;;5.31;57.50
46778;BME280;32536;47.128;8.746;2023-03-11T03:22:04;90528.91;;;5.35;57.46
46778;BME280;32536;47.128;8.746;2023-03-11T03:24:31;90525.84;;;5.36;57.40
46778;BME280;32536;47.128;8.746;2023-03-11T03:26:58;90536.47;;;5.36;57.28
46778;BME280;32536;47.128;8.746;2023-03-11T03:29:25;90526.94;;;5.39;57.22
46778;BME280;32536;47.128;8.746;2023-03-11T03:31:51;90532.63;;;5.41;57.03
46778;BME280;32536;47.128;8.746;2023-03-11T03:34:18;90539.03;;;5.43;57.30
46778;BME280;32536;47.128;8.746;2023-03-11T03:36:45;90531.78;;;5.48;56.97
46778;BME280;32536;47.128;8.746;2023-03-11T03:39:11;90540.38;;;5.55;56.82
46778;BME280;32536;47.128;8.746;2023-03-11T03:41:38;90540.72;;;5.61;57.24
46778;BME280;32536;47.128;8.746;2023-03-11T03:44:05;90528.19;;;5.61;56.99
46778;BME280;32536;47.128;8.746;2023-03-11T03:46:32;90531.22;;;5.60;56.65
46778;BME280;32536;47.128;8.746;2023-03-11T03:48:58;90521.88;;;5.52;56.92
46778;BME280;32536;47.128;8.746;2023-03-11T03:51:25;90507.91;;;5.44;56.80
46778;BME280;32536;47.128;8.746;2023-03-11T03:53:52;90518.28;;;5.35;57.01
46778;BME280;32536;47.128;8.746;2023-03-11T03:56:18;90518.41;;;5.24;57.20
46778;BME280;32536;47.128;8.746;2023-03-11T03:58:46;90523.84;;;5.13;57.33
46778;BME280;32536;47.128;8.746;2023-03-11T04:01:13;90518.22;;;5.07;57.95
46778;BME280;32536;47.128;8.746;2023-03-11T04:03:40;90522.81;;;5.03;57.82
46778;BME280;32536;47.128;8.746;2023-03-11T04:08:43;90519.50;;;4.92;58.46
46778;BME280;32536;47.128;8.746;2023-03-11T04:11:10;90543.06;;;4.90;58.70
46778;BME280;32536;47.128;8.746;2023-03-11T04:13:38;90555.59;;;4.86;58.84
46778;BME280;32536;47.128;8.746;2023-03-11T04:16:06;90538.19;;;4.85;59.00
46778;BME280;32536;47.128;8.746;2023-03-11T04:18:33;90536.69;;;4.84;59.08
46778;BME280;32536;47.128;8.746;2023-03-11T04:21:04;90524.19;;;4.80;58.82
46778;BME280;32536;47.128;8.746;2023-03-11T04:23:31;90528.41;;;4.74;58.98
46778;BME280;32536;47.128;8.746;2023-03-11T04:25:59;90535.69;;;4.70;59.21
46778;BME280;32536;47.128;8.746;2023-03-11T04:28:26;90531.09;;;4.71;59.51
46778;BME280;32536;47.128;8.746;2023-03-11T04:30:53;90528.13;;;4.65;59.38
46778;BME280;32536;47.128;8.746;2023-03-11T04:33:19;90529.31;;;4.60;59.35
46778;BME280;32536;47.128;8.746;2023-03-11T04:35:46;90532.38;;;4.55;59.44
46778;BME280;32536;47.128;8.746;2023-03-11T04:38:13;90529.03;;;4.51;59.58
46778;BME280;32536;47.128;8.746;2023-03-11T04:40:39;90528.28;;;4.51;60.04
46778;BME280;32536;47.128;8.746;2023-03-11T04:43:06;90522.56;;;4.52;60.07
46778;BME280;32536;47.128;8.746;2023-03-11T04:45:33;90517.66;;;4.51;60.55
46778;BME280;32536;47.128;8.746;2023-03-11T04:48:02;90519.88;;;4.56;60.37
46778;BME280;32536;47.128;8.746;2023-03-11T04:50:29;90521.38;;;4.60;60.15
46778;BME280;32536;47.128;8.746;2023-03-11T04:52:56;90530.06;;;4.61;60.24
46778;BME280;32536;47.128;8.746;2023-03-11T04:55:23;90520.59;;;4.60;60.15
46778;BME280;32536;47.128;8.746;2023-03-11T04:57:50;90516.88;;;4.54;60.50
46778;BME280;32536;47.128;8.746;2023-03-11T05:00:17;90516.94;;;4.46;60.34
46778;BME280;32536;47.128;8.746;2023-03-11T05:02:49;90517.00;;;4.39;60.35
46778;BME280;32536;47.128;8.746;2023-03-11T05:05:16;90526.53;;;4.33;60.66
46778;BME280;32536;47.128;8.746;2023-03-11T05:07:46;90519.00;;;4.28;60.88
46778;BME280;32536;47.128;8.746;2023-03-11T05:10:14;90521.69;;;4.24;60.95
46778;BME280;32536;47.128;8.746;2023-03-11T05:12:50;90531.53;;;4.24;61.09
46778;BME280;32536;47.128;8.746;2023-03-11T05:15:18;90544.03;;;4.23;61.07
46778;BME280;32536;47.128;8.746;2023-03-11T05:17:45;90541.38;;;4.23;61.57
46778;BME280;32536;47.128;8.746;2023-03-11T05:20:12;90544.41;;;4.22;61.09
46778;BME280;32536;47.128;8.746;2023-03-11T05:22:49;90539.53;;;4.16;60.99
46778;BME280;32536;47.128;8.746;2023-03-11T05:25:16;90533.47;;;4.16;61.48
46778;BME280;32536;47.128;8.746;2023-03-11T05:27:43;90555.06;;;4.14;61.38
46778;BME280;32536;47.128;8.746;2023-03-11T05:30:10;90544.50;;;4.11;61.18
46778;BME280;32536;47.128;8.746;2023-03-11T05:32:37;90544.13;;;4.09;61.57
46778;BME280;32536;47.128;8.746;2023-03-11T05:35:04;90553.59;;;4.10;61.48
46778;BME280;32536;47.128;8.746;2023-03-11T05:37:31;90537.72;;;4.06;61.53
46778;BME280;32536;47.128;8.746;2023-03-11T05:39:58;90550.25;;;4.02;61.41
46778;BME280;32536;47.128;8.746;2023-03-11T05:42:24;90551.38;;;4.01;61.65
46778;BME280;32536;47.128;8.746;2023-03-11T05:44:51;90554.44;;;3.99;61.90
46778;BME280;32536;47.128;8.746;2023-03-11T05:47:18;90564.25;;;3.99;61.80
46778;BME280;32536;47.128;8.746;2023-03-11T05:49:46;90558.59;;;4.00;61.86
46778;BME280;32536;47.128;8.746;2023-03-11T05:52:14;90557.44;;;4.01;62.00
46778;BME280;32536;47.128;8.746;2023-03-11T05:54:41;90556.69;;;4.01;61.94
46778;BME280;32536;47.128;8.746;2023-03-11T05:57:08;90547.59;;;4.02;62.10
46778;BME280;32536;47.128;8.746;2023-03-11T05:59:34;90554.41;;;4.03;62.09
46778;BME280;32536;47.128;8.746;2023-03-11T06:02:02;90553.63;;;4.06;62.00
46778;BME280;32536;47.128;8.746;2023-03-11T06:04:29;90557.75;;;4.11;61.91
46778;BME280;32536;47.128;8.746;2023-03-11T06:06:56;90553.16;;;4.15;61.95
46778;BME280;32536;47.128;8.746;2023-03-11T06:09:23;90549.78;;;4.14;61.92
46778;BME280;32536;47.128;8.746;2023-03-11T06:11:49;90547.13;;;4.14;62.01
46778;BME280;32536;47.128;8.746;2023-03-11T06:14:16;90529.72;;;4.13;62.06
46778;BME280;32536;47.128;8.746;2023-03-11T06:16:43;90539.56;;;4.13;62.29
46778;BME280;32536;47.128;8.746;2023-03-11T06:19:09;90545.22;;;4.15;62.16
46778;BME280;32536;47.128;8.746;2023-03-11T06:21:36;90545.59;;;4.17;62.34
46778;BME280;32536;47.128;8.746;2023-03-11T06:24:03;90542.91;;;4.21;62.52
46778;BME280;32536;47.128;8.746;2023-03-11T06:26:30;90547.78;;;4.26;62.32
46778;BME280;32536;47.128;8.746;2023-03-11T06:28:57;90542.09;;;4.31;62.33
46778;BME280;32536;47.128;8.746;2023-03-11T06:31:26;90555.66;;;4.37;61.83
46778;BME280;32536;47.128;8.746;2023-03-11T06:33:53;90546.53;;;4.41;62.09
46778;BME280;32536;47.128;8.746;2023-03-11T06:36:22;90550.66;;;4.46;62.17
46778;BME280;32536;47.128;8.746;2023-03-11T06:38:53;90551.03;;;4.48;61.74
46778;BME280;32536;47.128;8.746;2023-03-11T06:41:20;90568.41;;;4.53;62.25
46778;BME280;32536;47.128;8.746;2023-03-11T06:43:47;90570.66;;;4.58;62.08
46778;BME280;32536;47.128;8.746;2023-03-11T06:46:19;90575.16;;;4.61;62.08
46778;BME280;32536;47.128;8.746;2023-03-11T06:48:48;90572.44;;;4.68;62.09
46778;BME280;32536;47.128;8.746;2023-03-11T06:51:17;90579.19;;;4.76;61.93
46778;BME280;32536;47.128;8.746;2023-03-11T06:53:50;90583.66;;;4.83;61.58
46778;BME280;32536;47.128;8.746;2023-03-11T06:56:19;90595.03;;;4.87;61.94
46778;BME280;32536;47.128;8.746;2023-03-11T06:58:46;90594.56;;;4.96;61.89
46778;BME280;32536;47.128;8.746;2023-03-11T07:01:16;90590.69;;;5.04;61.58
46778;BME280;32536;47.128;8.746;2023-03-11T07:03:45;90597.81;;;5.11;61.40
46778;BME280;32536;47.128;8.746;2023-03-11T07:06:15;90609.50;;;5.17;61.03
46778;BME280;32536;47.128;8.746;2023-03-11T07:08:47;90598.88;;;5.17;61.12
46778;BME280;32536;47.128;8.746;2023-03-11T07:11:17;90603.91;;;5.11;60.67
46778;BME280;32536;47.128;8.746;2023-03-11T07:13:46;90602.44;;;5.03;61.12
46778;BME280;32536;47.128;8.746;2023-03-11T07:16:18;90607.03;;;4.99;61.13
46778;BME280;32536;47.128;8.746;2023-03-11T07:18:50;90603.66;;;4.95;61.20
46778;BME280;32536;47.128;8.746;2023-03-11T07:21:21;90607.50;;;4.90;61.39
46778;BME280;32536;47.128;8.746;2023-03-11T07:23:55;90611.34;;;4.82;61.53
46778;BME280;32536;47.128;8.746;2023-03-11T07:26:24;90619.75;;;4.77;61.86
46778;BME280;32536;47.128;8.746;2023-03-11T07:28:53;90625.47;;;4.72;61.96
46778;BME280;32536;47.128;8.746;2023-03-11T07:31:26;90626.28;;;4.65;61.93
46778;BME280;32536;47.128;8.746;2023-03-11T07:34:00;90621.41;;;4.60;62.01
46778;BME280;32536;47.128;8.746;2023-03-11T07:36:29;90619.91;;;4.55;62.05
46778;BME280;32536;47.128;8.746;2023-03-11T07:38:58;90630.53;;;4.52;62.25
46778;BME280;32536;47.128;8.746;2023-03-11T07:41:30;90621.44;;;4.53;62.53
46778;BME280;32536;47.128;8.746;2023-03-11T07:43:59;90620.66;;;4.59;62.53
46778;BME280;32536;47.128;8.746;2023-03-11T07:46:29;90616.84;;;4.64;62.45
46778;BME280;32536;47.128;8.746;2023-03-11T07:48:56;90601.66;;;4.64;62.45
46778;BME280;32536;47.128;8.746;2023-03-11T07:51:28;90602.06;;;4.63;62.11
46778;BME280;32536;47.128;8.746;2023-03-11T07:53:58;90613.81;;;4.62;62.10
46778;BME280;32536;47.128;8.746;2023-03-11T07:56:28;90603.97;;;4.59;62.36
46778;BME280;32536;47.128;8.746;2023-03-11T07:58:57;90591.88;;;4.58;62.24
46778;BME280;32536;47.128;8.746;2023-03-11T08:01:27;90592.25;;;4.56;62.45
46778;BME280;32536;47.128;8.746;2023-03-11T08:04:04;90590.72;;;4.55;62.34
46778;BME280;32536;47.128;8.746;2023-03-11T08:06:33;90607.78;;;4.58;62.70
46778;BME280;32536;47.128;8.746;2023-03-11T08:09:04;90599.00;;;4.64;62.51
46778;BME280;32536;47.128;8.746;2023-03-11T08:11:32;90606.47;;;4.77;62.69
46778;BME280;32536;47.128;8.746;2023-03-11T08:13:58;90612.81;;;4.87;62.18
46778;BME280;32536;47.128;8.746;2023-03-11T08:16:25;90614.31;;;4.91;61.81
46778;BME280;32536;47.128;8.746;2023-03-11T08:18:52;90613.16;;;4.92;61.44
46778;BME280;32536;47.128;8.746;2023-03-11T08:21:22;90617.69;;;4.92;61.47
46778;BME280;32536;47.128;8.746;2023-03-11T08:23:50;90620.34;;;4.92;61.61
46778;BME280;32536;47.128;8.746;2023-03-11T08:26:20;90622.63;;;4.93;61.50
46778;BME280;32536;47.128;8.746;2023-03-11T08:28:48;90629.47;;;4.94;61.45
46778;BME280;32536;47.128;8.746;2023-03-11T08:31:24;90635.16;;;4.89;61.26
46778;BME280;32536;47.128;8.746;2023-03-11T08:34:01;90633.28;;;4.90;61.29
46778;BME280;32536;47.128;8.746;2023-03-11T08:36:30;90642.38;;;4.89;61.52
46778;BME280;32536;47.128;8.746;2023-03-11T08:38:57;90649.25;;;4.86;61.41
46778;BME280;32536;47.128;8.746;2023-03-11T08:41:24;90652.31;;;4.81;61.65
46778;BME280;32536;47.128;8.746;2023-03-11T08:43:51;90659.50;;;4.80;61.82
46778;BME280;32536;47.128;8.746;2023-03-11T08:46:27;90665.97;;;4.79;61.50
46778;BME280;32536;47.128;8.746;2023-03-11T08:48:56;90666.34;;;4.81;61.61
46778;BME280;32536;47.128;8.746;2023-03-11T08:51:24;90673.16;;;4.83;61.61
46778;BME280;32536;47.128;8.746;2023-03-11T08:53:52;90671.25;;;4.79;61.58
46778;BME280;32536;47.128;8.746;2023-03-11T08:56:19;90685.75;;;4.71;61.70
46778;BME280;32536;47.128;8.746;2023-03-11T08:58:46;90688.06;;;4.65;61.77
46778;BME280;32536;47.128;8.746;2023-03-11T09:01:13;90680.09;;;4.65;61.82
46778;BME280;32536;47.128;8.746;2023-03-11T09:03:40;90691.09;;;4.68;62.11
46778;BME280;32536;47.128;8.746;2023-03-11T09:06:10;90696.38;;;4.68;61.58
46778;BME280;32536;47.128;8.746;2023-03-11T09:08:40;90694.50;;;4.64;61.64
46778;BME280;32536;47.128;8.746;2023-03-11T09:11:08;90694.53;;;4.61;61.87
46778;BME280;32536;47.128;8.746;2023-03-11T09:13:35;90697.19;;;4.57;62.02
46778;BME280;32536;47.128;8.746;2023-03-11T09:16:01;90688.16;;;4.51;61.91
46778;BME280;32536;47.128;8.746;2023-03-11T09:18:30;90695.00;;;4.45;62.19
46778;BME280;32536;47.128;8.746;2023-03-11T09:20:59;90691.25;;;4.39;62.18
46778;BME280;32536;47.128;8.746;2023-03-11T09:23:26;90689.38;;;4.36;62.57
46778;BME280;32536;47.128;8.746;2023-03-11T09:25:52;90689.06;;;4.30;62.32
46778;BME280;32536;47.128;8.746;2023-03-11T09:28:19;90698.53;;;4.27;62.60
46778;BME280;32536;47.128;8.746;2023-03-11T09:30:46;90696.25;;;4.26;62.54
46778;BME280;32536;47.128;8.746;2023-03-11T09:33:13;90696.25;;;4.26;62.74
46778;BME280;32536;47.128;8.746;2023-03-11T09:35:39;90701.56;;;4.26;62.50
46778;BME280;32536;47.128;8.746;2023-03-11T09:38:06;90698.91;;;4.26;62.59
46778;BME280;32536;47.128;8.746;2023-03-11T09:40:59;90697.41;;;4.25;62.49
46778;BME280;32536;47.128;8.746;2023-03-11T09:43:54;90695.47;;;4.32;62.34
46778;BME280;32536;47.128;8.746;2023-03-11T09:49:49;90710.16;;;4.48;62.57
46778;BME280;32536;47.128;8.746;2023-03-11T09:58:16;90722.53;;;4.69;62.26
46778;BME280;32536;47.128;8.746;2023-03-11T10:00:48;90729.31;;;4.74;62.38
46778;BME280;32536;47.128;8.746;2023-03-11T10:03:34;90724.34;;;4.76;61.65
46778;BME280;32536;47.128;8.746;2023-03-11T10:08:53;90729.28;;;4.77;62.17
46778;BME280;32536;47.128;8.746;2023-03-11T10:11:28;90737.63;;;4.76;62.46
46778;BME280;32536;47.128;8.746;2023-03-11T10:14:25;90731.19;;;4.73;62.44
46778;BME280;32536;47.128;8.746;2023-03-11T10:20:01;90732.34;;;4.72;62.47
46778;BME280;32536;47.128;8.746;2023-03-11T10:26:12;90738.84;;;4.64;62.81
46778;BME280;32536;47.128;8.746;2023-03-11T10:28:44;90748.31;;;4.65;63.11
46778;BME280;32536;47.128;8.746;2023-03-11T10:31:45;90743.00;;;4.65;62.74
46778;BME280;32536;47.128;8.746;2023-03-11T10:35:14;90737.75;;;4.61;62.53
46778;BME280;32536;47.128;8.746;2023-03-11T10:37:59;90734.34;;;4.57;62.57
46778;BME280;32536;47.128;8.746;2023-03-11T10:40:34;90737.41;;;4.52;62.78
46778;BME280;32536;47.128;8.746;2023-03-11T10:43:10;90733.63;;;4.49;62.74
46778;BME280;32536;47.128;8.746;2023-03-11T10:45:43;90738.16;;;4.49;62.71
46778;BME280;32536;47.128;8.746;2023-03-11T10:48:15;90738.94;;;4.49;63.08
46778;BME280;32536;47.128;8.746;2023-03-11T10:54:03;90738.53;;;4.55;62.96
46778;BME280;32536;47.128;8.746;2023-03-11T10:56:39;90736.97;;;4.61;62.81
46778;BME280;32536;47.128;8.746;2023-03-11T10:59:45;90738.44;;;4.69;62.70
46778;BME280;32536;47.128;8.746;2023-03-11T11:08:15;90722.94;;;4.64;62.43
46778;BME280;32536;47.128;8.746;2023-03-11T11:10:49;90731.25;;;4.62;62.76
46778;BME280;32536;47.128;8.746;2023-03-11T11:13:19;90729.78;;;4.61;62.75
46778;BME280;32536;47.128;8.746;2023-03-11T11:18:33;90731.97;;;4.74;62.40
46778;BME280;32536;47.128;8.746;2023-03-11T11:21:28;90721.69;;;4.79;62.44
46778;BME280;32536;47.128;8.746;2023-03-11T11:24:23;90729.31;;;4.74;62.30
46778;BME280;32536;47.128;8.746;2023-03-11T11:29:41;90742.69;;;4.56;62.43
46778;BME280;32536;47.128;8.746;2023-03-11T11:37:34;90741.91;;;4.59;62.79
46778;BME280;32536;47.128;8.746;2023-03-11T11:43:04;90746.75;;;4.75;63.01
46778;BME280;32536;47.128;8.746;2023-03-11T11:45:45;90737.59;;;4.79;63.31
46778;BME280;32536;47.128;8.746;2023-03-11T11:48:21;90730.78;;;4.78;62.98
46778;BME280;32536;47.128;8.746;2023-03-11T11:51:19;90730.44;;;4.76;62.95
46778;BME280;32536;47.128;8.746;2023-03-11T11:53:51;90724.75;;;4.74;63.14
46778;BME280;32536;47.128;8.746;2023-03-11T11:56:26;90723.22;;;4.77;63.10
46778;BME280;32536;47.128;8.746;2023-03-11T11:58:53;90725.09;;;4.80;63.59
46778;BME280;32536;47.128;8.746;2023-03-11T12:01:43;90725.44;;;4.82;62.92
46778;BME280;32536;47.128;8.746;2023-03-11T12:05:24;90734.56;;;4.85;63.40
46778;BME280;32536;47.128;8.746;2023-03-11T12:10:10;90718.63;;;4.85;63.40
46778;BME280;32536;47.128;8.746;2023-03-11T12:15:53;90715.56;;;4.90;63.14
46778;BME280;32536;47.128;8.746;2023-03-11T12:18:36;90716.63;;;5.00;63.11
46778;BME280;32536;47.128;8.746;2023-03-11T12:27:29;90703.88;;;5.25;63.01
46778;BME280;32536;47.128;8.746;2023-03-11T12:30:04;90706.47;;;5.33;62.55
46778;BME280;32536;47.128;8.746;2023-03-11T12:33:04;90706.03;;;5.38;62.45
46778;BME280;32536;47.128;8.746;2023-03-11T12:35:36;90705.22;;;5.44;62.85
46778;BME280;32536;47.128;8.746;2023-03-11T12:40:51;90698.25;;;5.58;62.11
46778;BME280;32536;47.128;8.746;2023-03-11T12:45:59;90700.38;;;5.74;62.13
46778;BME280;32536;47.128;8.746;2023-03-11T12:51:01;90700.25;;;5.85;62.10
46778;BME280;32536;47.128;8.746;2023-03-11T12:53:48;90708.16;;;5.92;60.81
46778;BME280;32536;47.128;8.746;2023-03-11T12:59:33;90706.16;;;6.03;61.32
46778;BME280;32536;47.128;8.746;2023-03-11T13:08:13;90708.34;;;6.08;61.08
46778;BME280;32536;47.128;8.746;2023-03-11T13:10:49;90706.81;;;6.11;61.49
46778;BME280;32536;47.128;8.746;2023-03-11T13:18:41;90704.06;;;6.18;61.06
46778;BME280;32536;47.128;8.746;2023-03-11T13:37:50;90717.06;;;6.09;61.21
46778;BME280;32536;47.128;8.746;2023-03-11T13:40:36;90716.66;;;6.14;61.24
46778;BME280;32536;47.128;8.746;2023-03-11T13:43:11;90722.66;;;6.18;61.60
46778;BME280;32536;47.128;8.746;2023-03-11T13:45:59;90717.31;;;6.22;61.58
46778;BME280;32536;47.128;8.746;2023-03-11T13:48:36;90724.97;;;6.16;61.35
46778;BME280;32536;47.128;8.746;2023-03-11T13:53:44;90724.03;;;5.99;62.05
46778;BME280;32536;47.128;8.746;2023-03-11T13:56:26;90724.13;;;5.88;61.91
46778;BME280;32536;47.128;8.746;2023-03-11T13:59:23;90740.53;;;5.80;62.15
46778;BME280;32536;47.128;8.746;2023-03-11T14:01:54;90731.13;;;5.75;62.98
46778;BME280;32536;47.128;8.746;2023-03-11T14:04:26;90740.66;;;5.69;62.84
46778;BME280;32536;47.128;8.746;2023-03-11T14:06:55;90739.94;;;5.65;63.20
46778;BME280;32536;47.128;8.746;2023-03-11T14:09:24;90729.72;;;5.63;63.18
46778;BME280;32536;47.128;8.746;2023-03-11T14:11:53;90739.53;;;5.66;63.11
46778;BME280;32536;47.128;8.746;2023-03-11T14:17:18;90741.81;;;5.68;63.15
46778;BME280;32536;47.128;8.746;2023-03-11T14:20:05;90750.09;;;5.73;62.97
46778;BME280;32536;47.128;8.746;2023-03-11T14:22:35;90750.03;;;5.81;63.43
46778;BME280;32536;47.128;8.746;2023-03-11T14:25:08;90749.25;;;5.84;62.82
46778;BME280;32536;47.128;8.746;2023-03-11T14:27:49;90753.75;;;5.87;62.67
46778;BME280;32536;47.128;8.746;2023-03-11T14:30:32;90749.25;;;5.84;62.77
46778;BME280;32536;47.128;8.746;2023-03-11T14:33:05;90759.16;;;5.80;63.16
46778;BME280;32536;47.128;8.746;2023-03-11T14:35:56;90752.38;;;5.75;63.35
46778;BME280;32536;47.128;8.746;2023-03-11T14:38:27;90749.75;;;5.71;63.65
46778;BME280;32536;47.128;8.746;2023-03-11T14:40:58;90757.41;;;5.66;63.26
46778;BME280;32536;47.128;8.746;2023-03-11T14:43:31;90756.69;;;5.61;63.14
46778;BME280;32536;47.128;8.746;2023-03-11T14:46:01;90754.41;;;5.60;63.68
46778;BME280;32536;47.128;8.746;2023-03-11T14:48:33;90755.50;;;5.63;63.82
46778;BME280;32536;47.128;8.746;2023-03-11T14:51:14;90757.78;;;5.64;62.88
46778;BME280;32536;47.128;8.746;2023-03-11T14:53:51;90765.34;;;5.69;63.64
46778;BME280;32536;47.128;8.746;2023-03-11T14:56:29;90771.03;;;5.68;63.37
46778;BME280;32536;47.128;8.746;2023-03-11T14:59:04;90772.22;;;5.63;63.48
46778;BME280;32536;47.128;8.746;2023-03-11T15:02:52;90774.50;;;5.61;63.31
46778;BME280;32536;47.128;8.746;2023-03-11T15:04:58;90768.44;;;5.60;63.57
46778;BME280;32536;47.128;8.746;2023-03-11T15:07:28;90771.16;;;5.57;64.00
46778;BME280;32536;47.128;8.746;2023-03-11T15:09:55;90773.84;;;5.53;63.61
46778;BME280;32536;47.128;8.746;2023-03-11T15:14:57;90770.84;;;5.48;63.55
46778;BME280;32536;47.128;8.746;2023-03-11T15:17:26;90776.19;;;5.44;63.90
46778;BME280;32536;47.128;8.746;2023-03-11T15:19:54;90768.63;;;5.39;63.74
46778;BME280;32536;47.128;8.746;2023-03-11T15:22:27;90769.03;;;5.37;64.02
46778;BME280;32536;47.128;8.746;2023-03-11T15:25:16;90775.50;;;5.36;63.84